createdAt,value
2023-04-16T00:01:54.891Z,9.43
2023-04-16T00:04:21.668Z,11.02
2023-04-16T00:06:48.302Z,10.50
2023-04-16T00:09:14.946Z,8.57
2023-04-16T00:11:41.506Z,12.13
2023-04-16T00:14:08.299Z,10.57
2023-04-16T00:16:35.015Z,8.85
2023-04-16T00:19:01.738Z,11.18
2023-04-16T00:21:28.453Z,9.93
2023-04-16T00:23:55.139Z,11.13
2023-04-16T00:26:21.700Z,10.75
2023-04-16T00:28:48.457Z,12.00
2023-04-16T00:31:15.325Z,10.73
2023-04-16T00:33:42.102Z,10.75
2023-04-16T00:36:09.454Z,10.90
2023-04-16T00:38:36.833Z,10.55
2023-04-16T00:41:03.474Z,11.50
2023-04-16T00:43:31.612Z,10.52
2023-04-16T00:45:58.832Z,10.15
2023-04-16T00:48:27.974Z,11.25
2023-04-16T00:50:55.491Z,9.05
2023-04-16T00:53:22.529Z,11.40
2023-04-16T00:55:49.253Z,11.20
2023-04-16T00:58:16.438Z,10.15
2023-04-16T01:00:43.114Z,9.73
2023-04-16T01:03:10.391Z,10.68
2023-04-16T01:05:37.503Z,8.75
2023-04-16T01:08:04.325Z,12.77
2023-04-16T01:10:30.912Z,10.45
2023-04-16T01:12:57.524Z,11.57
2023-04-16T01:15:24.189Z,12.57
2023-04-16T01:17:51.088Z,10.90
2023-04-16T01:20:17.901Z,9.18
2023-04-16T01:22:44.664Z,11.00
2023-04-16T01:25:15.653Z,9.10
2023-04-16T01:27:42.426Z,13.45
2023-04-16T01:30:09.332Z,10.40
2023-04-16T01:32:36.073Z,9.80
2023-04-16T01:35:02.912Z,10.70
2023-04-16T01:37:30.587Z,10.07
2023-04-16T01:39:57.543Z,11.02
2023-04-16T01:42:24.168Z,10.95
2023-04-16T01:44:50.911Z,13.23
2023-04-16T01:47:18.138Z,10.52
2023-04-16T01:49:45.657Z,11.27
2023-04-16T01:52:12.685Z,11.32
2023-04-16T01:54:39.448Z,11.20
2023-04-16T01:57:06.016Z,12.40
2023-04-16T01:59:32.580Z,11.70
2023-04-16T02:02:12.601Z,11.18
2023-04-16T02:04:40.745Z,13.15
2023-04-16T02:07:08.563Z,11.95
2023-04-16T02:09:40.231Z,12.35
2023-04-16T02:12:07.429Z,12.52
2023-04-16T02:14:35.301Z,12.07
2023-04-16T02:17:01.894Z,11.73
2023-04-16T02:19:29.105Z,10.07
2023-04-16T02:21:55.689Z,11.48
2023-04-16T02:24:22.324Z,11.43
2023-04-16T02:26:49.047Z,10.38
2023-04-16T02:29:16.424Z,11.02
2023-04-16T02:31:43.344Z,12.43
2023-04-16T02:34:10.090Z,12.65
2023-04-16T02:36:36.924Z,11.77
2023-04-16T02:39:04.494Z,15.82
2023-04-16T02:41:31.119Z,11.48
2023-04-16T02:43:57.866Z,10.15
2023-04-16T02:46:24.696Z,10.40
2023-04-16T02:48:51.550Z,11.57
2023-04-16T02:51:18.283Z,10.98
2023-04-16T02:53:46.038Z,12.10
2023-04-16T02:56:13.018Z,11.40
2023-04-16T02:58:39.828Z,12.23
2023-04-16T03:01:06.668Z,13.15
2023-04-16T03:03:33.218Z,11.43
2023-04-16T03:05:59.798Z,12.57
2023-04-16T03:08:26.530Z,11.73
2023-04-16T03:10:53.235Z,12.25
2023-04-16T03:13:19.910Z,11.70
2023-04-16T03:15:50.087Z,10.23
2023-04-16T03:18:16.932Z,12.30
2023-04-16T03:20:43.704Z,11.90
2023-04-16T03:23:10.267Z,12.23
2023-04-16T03:25:36.929Z,12.00
2023-04-16T03:28:03.948Z,12.05
2023-04-16T03:30:30.672Z,12.20
2023-04-16T03:32:57.326Z,13.60
2023-04-16T03:35:23.911Z,12.18
2023-04-16T03:37:51.707Z,13.00
2023-04-16T03:40:18.373Z,11.40
2023-04-16T03:42:44.946Z,13.55
2023-04-16T03:45:11.610Z,13.80
2023-04-16T03:47:38.393Z,13.27
2023-04-16T03:50:05.495Z,13.27
2023-04-16T03:52:32.139Z,12.88
2023-04-16T03:54:58.844Z,12.50
2023-04-16T03:57:25.444Z,12.70
2023-04-16T03:59:52.057Z,13.45
2023-04-16T04:02:18.778Z,12.38
2023-04-16T04:04:45.516Z,13.02
2023-04-16T04:07:12.133Z,12.40
2023-04-16T04:09:38.814Z,13.88
2023-04-16T04:12:05.456Z,13.07
2023-04-16T04:14:32.307Z,12.63
2023-04-16T04:16:59.071Z,11.95
2023-04-16T04:19:25.807Z,13.55
2023-04-16T04:21:52.392Z,12.18
2023-04-16T04:24:19.123Z,12.07
2023-04-16T04:26:45.942Z,12.80
2023-04-16T04:29:13.989Z,11.30
2023-04-16T04:31:41.049Z,12.98
2023-04-16T04:34:07.887Z,11.90
2023-04-16T04:36:34.593Z,11.70
2023-04-16T04:39:01.249Z,11.40
2023-04-16T04:41:27.908Z,11.80
2023-04-16T04:43:54.639Z,12.43
2023-04-16T04:46:21.480Z,11.88
2023-04-16T04:48:48.456Z,13.32
2023-04-16T04:51:15.188Z,11.73
2023-04-16T04:53:42.036Z,12.77
2023-04-16T04:56:12.830Z,12.40
2023-04-16T04:58:41.073Z,12.77
2023-04-16T05:01:07.850Z,10.90
2023-04-16T05:03:34.801Z,12.82
2023-04-16T05:06:01.601Z,11.70
2023-04-16T05:08:28.377Z,10.40
2023-04-16T05:10:55.119Z,11.38
2023-04-16T05:13:22.021Z,10.63
2023-04-16T05:15:48.644Z,10.55
2023-04-16T05:18:15.692Z,10.98
2023-04-16T05:20:42.408Z,10.02
2023-04-16T05:23:08.996Z,12.00
2023-04-16T05:25:35.705Z,9.57
2023-04-16T05:28:02.418Z,8.82
2023-04-16T05:30:29.243Z,8.70
2023-04-16T05:32:56.042Z,9.40
2023-04-16T05:35:22.849Z,10.55
2023-04-16T05:37:49.589Z,8.63
2023-04-16T05:40:16.313Z,8.63
2023-04-16T05:42:42.914Z,9.10
2023-04-16T05:45:10.818Z,8.68
2023-04-16T05:47:37.444Z,9.00
2023-04-16T05:50:04.386Z,8.55
2023-04-16T05:52:31.071Z,9.93
2023-04-16T05:55:01.239Z,9.73
2023-04-16T05:57:30.680Z,8.45
2023-04-16T05:59:57.271Z,9.18
2023-04-16T06:02:24.044Z,9.55
2023-04-16T06:04:50.884Z,9.45
2023-04-16T06:07:17.621Z,10.93
2023-04-16T06:09:45.151Z,10.23
2023-04-16T06:12:13.060Z,10.43
2023-04-16T06:14:39.853Z,11.05
2023-04-16T06:17:06.626Z,13.52
2023-04-16T06:19:33.469Z,16.15
2023-04-16T06:22:00.524Z,18.98
2023-04-16T06:24:27.353Z,12.90
2023-04-16T06:26:54.539Z,12.43
2023-04-16T06:29:22.531Z,12.85
2023-04-16T06:31:52.683Z,13.52
2023-04-16T06:34:19.384Z,16.42
2023-04-16T06:36:46.077Z,13.48
2023-04-16T06:39:13.777Z,12.88
2023-04-16T06:41:40.456Z,52.40
2023-04-16T06:44:07.114Z,28.95
2023-04-16T06:46:34.047Z,82.57
2023-04-16T06:49:00.887Z,27.50
2023-04-16T06:51:27.690Z,20.95
2023-04-16T06:53:54.633Z,16.55
2023-04-16T06:56:21.316Z,12.15
2023-04-16T06:58:48.257Z,11.57
2023-04-16T07:01:14.971Z,12.05
2023-04-16T07:03:41.860Z,13.77
2023-04-16T07:06:08.866Z,10.73
2023-04-16T07:08:35.792Z,17.52
2023-04-16T07:11:02.812Z,14.43
2023-04-16T07:13:29.454Z,12.68
2023-04-16T07:15:56.066Z,11.45
2023-04-16T07:18:22.753Z,12.32
2023-04-16T07:20:49.464Z,11.30
2023-04-16T07:23:16.057Z,10.30
2023-04-16T07:25:42.757Z,13.20
2023-04-16T07:28:09.486Z,11.48
2023-04-16T07:30:36.676Z,12.57
2023-04-16T07:33:03.976Z,13.55
2023-04-16T07:35:31.776Z,12.55
2023-04-16T07:37:58.415Z,11.30
2023-04-16T07:40:25.134Z,12.10
2023-04-16T07:42:52.334Z,12.52
2023-04-16T07:45:19.345Z,13.57
2023-04-16T07:47:45.983Z,13.45
2023-04-16T07:50:13.080Z,13.93
2023-04-16T07:52:41.337Z,14.77
2023-04-16T07:55:11.175Z,16.17
2023-04-16T07:57:37.874Z,12.93
2023-04-16T08:00:05.136Z,16.52
2023-04-16T08:02:32.391Z,14.55
2023-04-16T08:04:59.710Z,13.38
2023-04-16T08:07:26.485Z,15.63
2023-04-16T08:09:53.510Z,13.43
2023-04-16T08:12:20.952Z,14.15
2023-04-16T08:14:48.114Z,13.27
2023-04-16T08:17:16.092Z,12.15
2023-04-16T08:19:45.040Z,13.75
2023-04-16T08:22:12.614Z,14.35
2023-04-16T08:24:39.567Z,14.35
2023-04-16T08:27:17.826Z,25.58
2023-04-16T08:29:46.234Z,52.08
2023-04-16T08:32:13.146Z,21.85
2023-04-16T08:34:39.772Z,16.13
2023-04-16T08:37:06.384Z,14.77
2023-04-16T08:39:33.091Z,18.52
2023-04-16T08:42:04.500Z,13.50
2023-04-16T08:44:41.513Z,14.25
2023-04-16T08:47:11.516Z,13.65
2023-04-16T08:49:48.453Z,14.57
2023-04-16T08:52:19.476Z,13.93
2023-04-16T08:55:11.281Z,12.93
2023-04-16T08:57:44.454Z,13.32
2023-04-16T09:00:12.065Z,13.20
2023-04-16T09:02:39.388Z,13.13
2023-04-16T09:05:07.597Z,14.55
2023-04-16T09:07:34.773Z,14.00
2023-04-16T09:10:01.610Z,13.90
2023-04-16T09:12:28.435Z,13.57
2023-04-16T09:14:56.896Z,13.23
2023-04-16T09:17:23.620Z,12.63
2023-04-16T09:19:50.424Z,14.50
2023-04-16T09:22:17.245Z,11.38
2023-04-16T09:24:43.896Z,13.65
2023-04-16T09:27:12.411Z,20.13
2023-04-16T09:29:41.232Z,15.23
2023-04-16T09:32:12.068Z,16.77
2023-04-16T09:35:02.841Z,12.00
2023-04-16T09:37:31.001Z,15.48
2023-04-16T09:40:03.619Z,13.35
2023-04-16T09:42:36.103Z,16.63
2023-04-16T09:45:05.775Z,14.38
2023-04-16T09:47:41.460Z,18.63
2023-04-16T09:52:39.121Z,15.98
2023-04-16T09:55:06.541Z,17.95
2023-04-16T09:57:33.400Z,12.32
2023-04-16T10:00:05.837Z,15.77
2023-04-16T10:02:34.432Z,15.00
2023-04-16T10:05:03.155Z,15.30
2023-04-16T10:07:33.661Z,13.60
2023-04-16T10:10:00.617Z,13.95
2023-04-16T10:12:28.728Z,13.57
2023-04-16T10:14:55.511Z,14.55
2023-04-16T10:17:23.612Z,14.65
2023-04-16T10:19:51.268Z,15.60
2023-04-16T10:22:18.029Z,14.07
2023-04-16T10:24:47.663Z,15.18
2023-04-16T10:27:14.416Z,16.20
2023-04-16T10:29:41.299Z,13.98
2023-04-16T10:32:08.264Z,18.20
2023-04-16T10:34:35.916Z,21.77
2023-04-16T10:37:02.697Z,14.85
2023-04-16T10:39:29.514Z,36.42
2023-04-16T10:42:12.996Z,17.15
2023-04-16T10:44:42.795Z,25.50
2023-04-16T10:47:13.223Z,103.20
2023-04-16T10:49:41.104Z,21.98
2023-04-16T10:52:14.806Z,47.85
2023-04-16T10:54:41.787Z,32.70
2023-04-16T10:57:10.386Z,31.08
2023-04-16T10:59:38.400Z,25.88
2023-04-16T11:02:12.914Z,25.90
2023-04-16T11:04:42.731Z,31.85
2023-04-16T11:07:15.633Z,36.33
2023-04-16T11:09:56.336Z,27.00
2023-04-16T11:12:23.184Z,20.38
2023-04-16T11:14:51.054Z,18.02
2023-04-16T11:17:19.038Z,16.25
2023-04-16T11:19:46.570Z,14.77
2023-04-16T11:22:16.872Z,18.95
2023-04-16T11:24:47.577Z,16.58
2023-04-16T11:27:15.953Z,15.82
2023-04-16T11:29:44.619Z,18.02
2023-04-16T11:32:21.562Z,16.95
2023-04-16T11:37:15.257Z,23.02
2023-04-16T11:39:52.843Z,22.13
2023-04-16T11:42:22.583Z,20.30
2023-04-16T11:44:54.311Z,19.23
2023-04-16T11:47:22.068Z,18.95
2023-04-16T11:49:49.030Z,20.13
2023-04-16T11:52:31.893Z,20.65
2023-04-16T11:54:59.326Z,21.67
2023-04-16T11:57:30.934Z,19.77
2023-04-16T12:00:02.513Z,20.42
2023-04-16T12:02:44.074Z,21.85
2023-04-16T12:05:39.464Z,18.73
2023-04-16T12:08:08.258Z,17.77
2023-04-16T12:10:37.358Z,18.90
2023-04-16T12:13:14.547Z,18.52
2023-04-16T12:15:59.696Z,17.85
2023-04-16T12:18:27.160Z,19.50
2023-04-16T12:20:57.016Z,20.85
2023-04-16T12:23:50.936Z,20.92
2023-04-16T12:26:20.714Z,21.38
2023-04-16T12:28:48.422Z,22.77
2023-04-16T12:31:19.146Z,22.98
2023-04-16T12:34:02.489Z,27.13
2023-04-16T12:36:30.510Z,34.55
2023-04-16T12:38:57.094Z,28.63
2023-04-16T12:41:23.777Z,26.88
2023-04-16T12:43:50.534Z,30.80
2023-04-16T12:46:17.119Z,30.08
2023-04-16T12:48:43.917Z,31.35
2023-04-16T12:51:13.639Z,28.50
2023-04-16T12:53:43.007Z,33.80
2023-04-16T12:56:09.562Z,32.20
2023-04-16T12:58:41.692Z,29.52
2023-04-16T13:01:08.480Z,30.13
2023-04-16T13:03:37.268Z,27.98
2023-04-16T13:06:04.836Z,28.48
2023-04-16T13:08:31.607Z,26.98
2023-04-16T13:10:58.448Z,29.75
2023-04-16T13:13:28.520Z,26.30
2023-04-16T13:15:55.348Z,26.33
2023-04-16T13:18:23.137Z,24.50
2023-04-16T13:20:51.226Z,24.38
2023-04-16T13:23:18.015Z,23.83
2023-04-16T13:25:50.144Z,23.20
2023-04-16T13:28:17.553Z,25.85
2023-04-16T13:30:47.348Z,23.42
2023-04-16T13:33:20.833Z,23.00
2023-04-16T13:35:51.770Z,23.02
2023-04-16T13:38:23.608Z,22.88
2023-04-16T13:40:56.128Z,24.73
2023-04-16T13:43:22.933Z,23.75
2023-04-16T13:45:49.790Z,22.92
2023-04-16T13:48:17.782Z,25.83
2023-04-16T13:50:48.000Z,24.70
2023-04-16T13:53:14.752Z,27.88
2023-04-16T13:55:42.467Z,25.13
2023-04-16T13:58:09.473Z,23.67
2023-04-16T14:00:36.742Z,28.27
2023-04-16T14:03:07.770Z,23.48
2023-04-16T14:05:34.481Z,25.98
2023-04-16T14:08:01.182Z,23.88
2023-04-16T14:10:31.952Z,24.50
2023-04-16T14:12:58.969Z,22.52
2023-04-16T14:15:27.454Z,22.55
2023-04-16T14:17:57.021Z,24.33
2023-04-16T14:20:28.993Z,21.63
2023-04-16T14:22:56.060Z,20.63
2023-04-16T14:25:23.460Z,22.13
2023-04-16T14:27:52.905Z,26.02
2023-04-16T14:30:21.131Z,22.30
2023-04-16T14:32:47.859Z,23.30
2023-04-16T14:35:14.624Z,23.83
2023-04-16T14:37:42.665Z,23.40
2023-04-16T14:40:12.787Z,20.40
2023-04-16T14:42:39.739Z,21.90
2023-04-16T14:45:07.438Z,20.75
2023-04-16T14:47:34.728Z,21.92
2023-04-16T14:50:02.174Z,22.52
2023-04-16T14:52:32.513Z,20.52
2023-04-16T14:55:02.313Z,21.92
2023-04-16T14:57:31.750Z,22.60
2023-04-16T14:59:58.525Z,22.23
2023-04-16T15:02:30.854Z,19.80
2023-04-16T15:04:57.576Z,21.88
2023-04-16T15:07:26.129Z,21.30
2023-04-16T15:09:52.833Z,21.58
2023-04-16T15:12:19.789Z,18.35
2023-04-16T15:14:46.386Z,17.58
2023-04-16T15:17:13.022Z,16.95
2023-04-16T15:19:39.715Z,27.58
2023-04-16T15:22:06.930Z,17.95
2023-04-16T15:24:33.524Z,15.60
2023-04-16T15:27:02.157Z,16.40
2023-04-16T15:29:28.767Z,14.80
2023-04-16T15:31:55.903Z,14.23
2023-04-16T15:34:22.467Z,12.80
2023-04-16T15:36:49.132Z,14.45
2023-04-16T15:39:15.884Z,14.50
2023-04-16T15:41:57.444Z,13.07
2023-04-16T15:44:27.054Z,14.15
2023-04-16T15:46:53.793Z,13.50
2023-04-16T15:49:20.400Z,14.20
2023-04-16T15:51:47.034Z,14.38
2023-04-16T15:54:13.655Z,15.13
2023-04-16T15:56:40.623Z,14.30
2023-04-16T15:59:08.260Z,17.02
2023-04-16T16:01:35.040Z,14.13
2023-04-16T16:04:01.909Z,19.75
2023-04-16T16:06:28.880Z,16.52
2023-04-16T16:08:55.713Z,15.60
2023-04-16T16:11:22.448Z,15.45
2023-04-16T16:13:49.112Z,16.58
2023-04-16T16:16:16.121Z,17.23
2023-04-16T16:18:42.982Z,18.45
2023-04-16T16:21:09.978Z,16.60
2023-04-16T16:23:36.936Z,17.13
2023-04-16T16:26:06.117Z,23.13
2023-04-16T16:28:32.862Z,19.35
2023-04-16T16:31:01.224Z,19.83
2023-04-16T16:33:28.629Z,16.63
2023-04-16T16:35:55.386Z,18.77
2023-04-16T16:38:22.233Z,18.65
2023-04-16T16:40:48.874Z,18.33
2023-04-16T16:43:15.566Z,17.55
2023-04-16T16:45:42.168Z,18.35
2023-04-16T16:48:09.207Z,19.40
2023-04-16T16:50:35.919Z,17.92
2023-04-16T16:53:03.176Z,18.70
2023-04-16T16:55:30.001Z,19.65
2023-04-16T16:57:56.997Z,20.98
2023-04-16T17:00:23.872Z,18.58
2023-04-16T17:02:52.046Z,20.20
2023-04-16T17:05:19.104Z,21.25
2023-04-16T17:07:45.870Z,22.50
2023-04-16T17:10:20.104Z,21.13
2023-04-16T17:12:50.989Z,20.33
2023-04-16T17:15:19.782Z,22.63
2023-04-16T17:17:50.740Z,24.00
2023-04-16T17:20:17.468Z,24.65
2023-04-16T17:22:45.177Z,23.45
2023-04-16T17:25:15.010Z,23.88
2023-04-16T17:27:47.242Z,21.95
2023-04-16T17:30:14.560Z,22.85
2023-04-16T17:32:41.453Z,25.40
2023-04-16T17:35:13.655Z,23.60
2023-04-16T17:37:45.488Z,25.25
2023-04-16T17:40:20.449Z,26.15
2023-04-16T17:42:48.720Z,24.85
2023-04-16T17:45:18.925Z,25.17
2023-04-16T17:47:48.639Z,23.75
2023-04-16T17:50:15.385Z,26.27
2023-04-16T17:52:42.121Z,25.38
2023-04-16T17:55:12.858Z,27.17
2023-04-16T17:57:42.704Z,23.10
2023-04-16T18:00:14.400Z,29.40
2023-04-16T18:02:42.649Z,27.27
2023-04-16T18:05:09.729Z,28.13
2023-04-16T18:07:39.713Z,26.75
2023-04-16T18:10:07.411Z,27.60
2023-04-16T18:12:34.278Z,25.90
2023-04-16T18:15:05.909Z,26.98
2023-04-16T18:17:37.564Z,29.63
2023-04-16T18:20:06.962Z,24.30
2023-04-16T18:22:33.950Z,28.02
2023-04-16T18:25:00.806Z,26.17
2023-04-16T18:27:28.810Z,27.80
2023-04-16T18:29:55.743Z,27.35
2023-04-16T18:32:25.480Z,29.00
2023-04-16T18:34:52.392Z,29.15
2023-04-16T18:37:19.067Z,29.65
2023-04-16T18:39:45.668Z,28.55
2023-04-16T18:42:12.329Z,29.65
2023-04-16T18:44:38.947Z,30.65
2023-04-16T18:47:05.677Z,30.85
2023-04-16T18:49:34.755Z,35.70
2023-04-16T18:52:04.298Z,32.42
2023-04-16T18:54:31.111Z,30.60
2023-04-16T18:56:59.733Z,33.13
2023-04-16T18:59:27.456Z,32.20
2023-04-16T19:01:56.735Z,27.85
2023-04-16T19:04:23.594Z,28.92
2023-04-16T19:06:53.479Z,31.67
2023-04-16T19:09:22.703Z,31.50
2023-04-16T19:11:50.548Z,27.83
2023-04-16T19:14:20.609Z,27.98
2023-04-16T19:16:51.764Z,29.63
2023-04-16T19:19:18.446Z,30.77
2023-04-16T19:21:45.461Z,30.88
2023-04-16T19:24:14.709Z,30.45
2023-04-16T19:26:41.541Z,25.85
2023-04-16T19:29:10.640Z,26.05
2023-04-16T19:31:37.647Z,31.35
2023-04-16T19:34:04.459Z,27.55
2023-04-16T19:36:32.416Z,27.77
2023-04-16T19:38:59.554Z,30.45
2023-04-16T19:41:26.253Z,27.98
2023-04-16T19:43:55.730Z,29.20
2023-04-16T19:46:22.478Z,34.47
2023-04-16T19:48:52.362Z,34.00
2023-04-16T19:51:22.880Z,31.13
2023-04-16T19:53:49.608Z,30.85
2023-04-16T19:56:19.513Z,35.53
2023-04-16T19:58:46.395Z,35.63
2023-04-16T20:01:14.209Z,34.95
2023-04-16T20:03:42.685Z,30.95
2023-04-16T20:06:11.181Z,33.15
2023-04-16T20:08:38.009Z,30.75
2023-04-16T20:11:05.364Z,30.67
2023-04-16T20:13:31.981Z,28.98
2023-04-16T20:15:58.661Z,27.90
2023-04-16T20:18:28.027Z,30.70
2023-04-16T20:20:54.876Z,31.52
2023-04-16T20:23:21.528Z,32.25
2023-04-16T20:25:48.418Z,27.67
2023-04-16T20:28:16.292Z,30.90
2023-04-16T20:30:42.979Z,31.30
2023-04-16T20:33:09.813Z,32.33
2023-04-16T20:35:36.684Z,30.10
2023-04-16T20:38:03.292Z,29.65
2023-04-16T20:40:32.642Z,31.00
2023-04-16T20:43:02.222Z,30.67
2023-04-16T20:45:32.164Z,30.95
2023-04-16T20:48:02.264Z,32.63
2023-04-16T20:50:29.137Z,32.13
2023-04-16T20:52:56.238Z,34.47
2023-04-16T20:55:22.851Z,33.22
2023-04-16T20:57:49.528Z,30.85
2023-04-16T21:00:16.761Z,31.42
2023-04-16T21:02:43.897Z,33.10
2023-04-16T21:05:14.477Z,31.20
2023-04-16T21:07:41.824Z,30.40
2023-04-16T21:10:11.578Z,28.67
2023-04-16T21:12:38.308Z,32.50
2023-04-16T21:15:05.318Z,32.50
2023-04-16T21:17:31.978Z,32.03
2023-04-16T21:19:58.855Z,38.08
2023-04-16T21:22:25.572Z,32.10
2023-04-16T21:24:52.154Z,33.70
2023-04-16T21:27:18.905Z,30.80
2023-04-16T21:29:45.512Z,30.67
2023-04-16T21:32:12.127Z,33.08
2023-04-16T21:34:38.936Z,33.55
2023-04-16T21:37:05.738Z,33.10
2023-04-16T21:39:32.521Z,32.70
2023-04-16T21:41:59.056Z,30.95
2023-04-16T21:44:25.812Z,31.92
2023-04-16T21:46:52.706Z,31.40
2023-04-16T21:49:19.423Z,31.02
2023-04-16T21:51:46.221Z,30.50
2023-04-16T21:54:13.145Z,30.30
2023-04-16T21:56:39.875Z,32.08
2023-04-16T21:59:06.471Z,29.52
2023-04-16T22:01:33.532Z,28.10
2023-04-16T22:04:02.062Z,29.00
2023-04-16T22:06:28.723Z,27.98
2023-04-16T22:08:58.742Z,34.40
2023-04-16T22:11:25.623Z,29.38
2023-04-16T22:13:53.524Z,27.95
2023-04-16T22:16:20.275Z,25.00
2023-04-16T22:18:47.284Z,27.77
2023-04-16T22:21:14.126Z,26.83
2023-04-16T22:23:40.869Z,30.80
2023-04-16T22:26:08.936Z,25.35
2023-04-16T22:28:35.503Z,28.88
2023-04-16T22:31:02.273Z,27.92
2023-04-16T22:33:30.527Z,25.58
2023-04-16T22:35:57.076Z,27.60
2023-04-16T22:38:24.028Z,27.70
2023-04-16T22:40:50.638Z,23.33
2023-04-16T22:43:17.700Z,25.27
2023-04-16T22:45:46.030Z,26.83
2023-04-16T22:48:12.838Z,25.15
2023-04-16T22:50:40.530Z,25.90
2023-04-16T22:53:07.148Z,29.67
2023-04-16T22:55:33.903Z,28.58
2023-04-16T22:58:01.126Z,26.55
2023-04-16T23:00:28.373Z,30.40
2023-04-16T23:02:55.119Z,29.17
2023-04-16T23:05:21.886Z,31.65
2023-04-16T23:07:48.592Z,26.27
2023-04-16T23:10:15.841Z,28.80
2023-04-16T23:12:42.475Z,28.50
2023-04-16T23:15:09.510Z,23.38
2023-04-16T23:17:36.670Z,28.00
2023-04-16T23:20:05.307Z,26.77
2023-04-16T23:22:32.262Z,27.17
2023-04-16T23:24:58.858Z,27.33
2023-04-16T23:27:26.129Z,27.88
2023-04-16T23:29:52.699Z,31.40
2023-04-16T23:32:19.311Z,25.88
2023-04-16T23:34:46.242Z,29.02
2023-04-16T23:37:12.881Z,31.20
2023-04-16T23:39:39.830Z,25.40
2023-04-16T23:42:06.509Z,26.42
2023-04-16T23:44:33.177Z,25.42
2023-04-16T23:46:59.933Z,27.67
2023-04-16T23:49:26.540Z,29.42
2023-04-16T23:51:53.381Z,28.52
2023-04-16T23:54:20.967Z,28.85
2023-04-16T23:56:48.308Z,31.98
2023-04-16T23:59:14.900Z,30.13
